sensor_id;sensor_type;location;lat;lon;timestamp;P1;durP1;ratioP1;P2;durP2;ratioP2
81960;SDS011;71462;50.650;6.888;2024-01-10T00:00:12;13.98;;;6.35;;
81960;SDS011;71462;50.650;6.888;2024-01-10T00:02:40;13.98;;;7.05;;
81960;SDS011;71462;50.650;6.888;2024-01-10T00:05:08;16.05;;;7.00;;
81960;SDS011;71462;50.650;6.888;2024-01-10T00:07:35;15.48;;;5.88;;
81960;SDS011;71462;50.650;6.888;2024-01-10T00:10:04;12.63;;;5.88;;
81960;SDS011;71462;50.650;6.888;2024-01-10T00:12:33;19.88;;;7.50;;
81960;SDS011;71462;50.650;6.888;2024-01-10T00:15:03;26.70;;;9.73;;
81960;SDS011;71462;50.650;6.888;2024-01-10T00:17:32;16.42;;;7.25;;
81960;SDS011;71462;50.650;6.888;2024-01-10T00:19:59;15.27;;;6.28;;
81960;SDS011;71462;50.650;6.888;2024-01-10T00:22:27;14.85;;;5.45;;
81960;SDS011;71462;50.650;6.888;2024-01-10T00:24:55;91.30;;;24.10;;
81960;SDS011;71462;50.650;6.888;2024-01-10T00:27:23;111.13;;;28.58;;
81960;SDS011;71462;50.650;6.888;2024-01-10T00:29:54;197.18;;;53.25;;
81960;SDS011;71462;50.650;6.888;2024-01-10T00:32:23;283.70;;;78.22;;
81960;SDS011;71462;50.650;6.888;2024-01-10T00:34:54;58.50;;;15.98;;
81960;SDS011;71462;50.650;6.888;2024-01-10T00:37:26;69.05;;;22.98;;
81960;SDS011;71462;50.650;6.888;2024-01-10T00:39:54;85.32;;;27.98;;
81960;SDS011;71462;50.650;6.888;2024-01-10T00:42:24;52.00;;;17.40;;
81960;SDS011;71462;50.650;6.888;2024-01-10T00:44:55;25.55;;;9.02;;
81960;SDS011;71462;50.650;6.888;2024-01-10T00:47:24;11.20;;;5.40;;
81960;SDS011;71462;50.650;6.888;2024-01-10T00:49:56;9.73;;;4.90;;
81960;SDS011;71462;50.650;6.888;2024-01-10T00:52:24;12.95;;;4.85;;
81960;SDS011;71462;50.650;6.888;2024-01-10T00:54:56;10.90;;;4.97;;
81960;SDS011;71462;50.650;6.888;2024-01-10T00:57:29;11.32;;;4.35;;
81960;SDS011;71462;50.650;6.888;2024-01-10T00:59:59;15.20;;;5.93;;
81960;SDS011;71462;50.650;6.888;2024-01-10T01:02:29;16.60;;;5.82;;
81960;SDS011;71462;50.650;6.888;2024-01-10T01:04:58;10.20;;;4.40;;
81960;SDS011;71462;50.650;6.888;2024-01-10T01:07:30;14.82;;;6.03;;
81960;SDS011;71462;50.650;6.888;2024-01-10T01:09:58;10.63;;;4.95;;
81960;SDS011;71462;50.650;6.888;2024-01-10T01:12:27;15.52;;;5.90;;
81960;SDS011;71462;50.650;6.888;2024-01-10T01:14:57;15.95;;;5.55;;
81960;SDS011;71462;50.650;6.888;2024-01-10T01:17:28;12.38;;;4.95;;
81960;SDS011;71462;50.650;6.888;2024-01-10T01:19:57;10.75;;;5.50;;
81960;SDS011;71462;50.650;6.888;2024-01-10T01:22:29;13.23;;;4.63;;
81960;SDS011;71462;50.650;6.888;2024-01-10T01:24:59;11.30;;;5.05;;
81960;SDS011;71462;50.650;6.888;2024-01-10T01:27:30;9.73;;;4.68;;
81960;SDS011;71462;50.650;6.888;2024-01-10T01:30:01;10.65;;;4.93;;
81960;SDS011;71462;50.650;6.888;2024-01-10T01:32:35;10.88;;;4.50;;
81960;SDS011;71462;50.650;6.888;2024-01-10T01:35:05;11.77;;;4.57;;
81960;SDS011;71462;50.650;6.888;2024-01-10T01:37:42;8.02;;;3.92;;
81960;SDS011;71462;50.650;6.888;2024-01-10T01:40:18;9.88;;;5.00;;
81960;SDS011;71462;50.650;6.888;2024-01-10T01:42:58;13.27;;;4.38;;
81960;SDS011;71462;50.650;6.888;2024-01-10T01:48:19;7.40;;;4.15;;
81960;SDS011;71462;50.650;6.888;2024-01-10T01:50:50;8.80;;;4.53;;
81960;SDS011;71462;50.650;6.888;2024-01-10T01:53:20;7.55;;;3.65;;
81960;SDS011;71462;50.650;6.888;2024-01-10T01:55:48;9.98;;;4.13;;
81960;SDS011;71462;50.650;6.888;2024-01-10T01:58:15;14.02;;;4.38;;
81960;SDS011;71462;50.650;6.888;2024-01-10T02:00:45;10.88;;;4.35;;
81960;SDS011;71462;50.650;6.888;2024-01-10T02:03:13;11.30;;;4.82;;
81960;SDS011;71462;50.650;6.888;2024-01-10T02:05:40;9.52;;;4.35;;
81960;SDS011;71462;50.650;6.888;2024-01-10T02:08:09;8.38;;;4.38;;
81960;SDS011;71462;50.650;6.888;2024-01-10T02:10:36;13.43;;;4.15;;
81960;SDS011;71462;50.650;6.888;2024-01-10T02:13:07;10.10;;;4.30;;
81960;SDS011;71462;50.650;6.888;2024-01-10T02:15:37;8.77;;;3.50;;
81960;SDS011;71462;50.650;6.888;2024-01-10T02:18:06;12.80;;;4.13;;
81960;SDS011;71462;50.650;6.888;2024-01-10T02:20:36;10.85;;;4.38;;
81960;SDS011;71462;50.650;6.888;2024-01-10T02:23:04;10.20;;;4.80;;
81960;SDS011;71462;50.650;6.888;2024-01-10T02:25:34;8.43;;;4.43;;
81960;SDS011;71462;50.650;6.888;2024-01-10T02:28:02;13.18;;;4.85;;
81960;SDS011;71462;50.650;6.888;2024-01-10T02:30:30;11.38;;;4.95;;
81960;SDS011;71462;50.650;6.888;2024-01-10T02:32:57;12.32;;;5.00;;
81960;SDS011;71462;50.650;6.888;2024-01-10T02:35:25;11.88;;;5.13;;
81960;SDS011;71462;50.650;6.888;2024-01-10T02:37:54;10.25;;;5.03;;
81960;SDS011;71462;50.650;6.888;2024-01-10T02:40:21;12.05;;;5.38;;
81960;SDS011;71462;50.650;6.888;2024-01-10T02:42:50;26.30;;;11.75;;
81960;SDS011;71462;50.650;6.888;2024-01-10T02:45:18;30.25;;;12.32;;
81960;SDS011;71462;50.650;6.888;2024-01-10T02:47:46;33.15;;;12.77;;
81960;SDS011;71462;50.650;6.888;2024-01-10T02:50:14;22.13;;;9.73;;
81960;SDS011;71462;50.650;6.888;2024-01-10T02:52:43;40.20;;;15.40;;
81960;SDS011;71462;50.650;6.888;2024-01-10T02:55:11;42.95;;;15.02;;
81960;SDS011;71462;50.650;6.888;2024-01-10T02:57:38;28.02;;;10.90;;
81960;SDS011;71462;50.650;6.888;2024-01-10T03:00:08;31.10;;;11.48;;
81960;SDS011;71462;50.650;6.888;2024-01-10T03:02:37;19.92;;;7.15;;
81960;SDS011;71462;50.650;6.888;2024-01-10T03:05:05;13.82;;;5.68;;
81960;SDS011;71462;50.650;6.888;2024-01-10T03:07:33;17.10;;;5.82;;
81960;SDS011;71462;50.650;6.888;2024-01-10T03:10:00;25.70;;;9.27;;
81960;SDS011;71462;50.650;6.888;2024-01-10T03:12:30;44.95;;;13.70;;
81960;SDS011;71462;50.650;6.888;2024-01-10T03:14:57;29.33;;;10.32;;
81960;SDS011;71462;50.650;6.888;2024-01-10T03:17:27;27.92;;;11.40;;
81960;SDS011;71462;50.650;6.888;2024-01-10T03:19:55;22.50;;;8.68;;
81960;SDS011;71462;50.650;6.888;2024-01-10T03:22:23;19.90;;;8.35;;
81960;SDS011;71462;50.650;6.888;2024-01-10T03:24:50;14.45;;;5.97;;
81960;SDS011;71462;50.650;6.888;2024-01-10T03:27:18;19.40;;;7.47;;
81960;SDS011;71462;50.650;6.888;2024-01-10T03:29:45;18.45;;;7.93;;
81960;SDS011;71462;50.650;6.888;2024-01-10T03:32:13;34.13;;;14.02;;
81960;SDS011;71462;50.650;6.888;2024-01-10T03:34:42;12.35;;;6.72;;
81960;SDS011;71462;50.650;6.888;2024-01-10T03:37:10;15.35;;;5.63;;
81960;SDS011;71462;50.650;6.888;2024-01-10T03:39:38;12.70;;;4.45;;
81960;SDS011;71462;50.650;6.888;2024-01-10T03:42:06;12.60;;;5.47;;
81960;SDS011;71462;50.650;6.888;2024-01-10T03:44:33;12.52;;;5.05;;
81960;SDS011;71462;50.650;6.888;2024-01-10T03:47:01;15.65;;;6.35;;
81960;SDS011;71462;50.650;6.888;2024-01-10T03:49:29;15.70;;;6.00;;
81960;SDS011;71462;50.650;6.888;2024-01-10T03:51:58;14.23;;;5.10;;
81960;SDS011;71462;50.650;6.888;2024-01-10T03:54:26;12.43;;;5.10;;
81960;SDS011;71462;50.650;6.888;2024-01-10T03:56:53;11.07;;;4.25;;
81960;SDS011;71462;50.650;6.888;2024-01-10T03:59:21;8.77;;;4.28;;
81960;SDS011;71462;50.650;6.888;2024-01-10T04:01:48;9.38;;;3.97;;
81960;SDS011;71462;50.650;6.888;2024-01-10T04:04:16;9.88;;;4.75;;
81960;SDS011;71462;50.650;6.888;2024-01-10T04:06:44;7.65;;;3.42;;
81960;SDS011;71462;50.650;6.888;2024-01-10T04:09:13;11.25;;;4.55;;
81960;SDS011;71462;50.650;6.888;2024-01-10T04:11:42;12.32;;;5.05;;
81960;SDS011;71462;50.650;6.888;2024-01-10T04:14:10;11.35;;;5.03;;
81960;SDS011;71462;50.650;6.888;2024-01-10T04:16:38;13.05;;;5.35;;
81960;SDS011;71462;50.650;6.888;2024-01-10T04:19:06;18.17;;;5.75;;
81960;SDS011;71462;50.650;6.888;2024-01-10T04:21:33;18.77;;;6.20;;
81960;SDS011;71462;50.650;6.888;2024-01-10T04:24:01;13.63;;;6.00;;
81960;SDS011;71462;50.650;6.888;2024-01-10T04:26:30;18.15;;;8.00;;
81960;SDS011;71462;50.650;6.888;2024-01-10T04:28:58;20.05;;;7.38;;
81960;SDS011;71462;50.650;6.888;2024-01-10T04:31:26;17.23;;;7.18;;
81960;SDS011;71462;50.650;6.888;2024-01-10T04:33:53;15.95;;;5.70;;
81960;SDS011;71462;50.650;6.888;2024-01-10T04:36:21;13.52;;;6.43;;
81960;SDS011;71462;50.650;6.888;2024-01-10T04:38:49;20.50;;;6.32;;
81960;SDS011;71462;50.650;6.888;2024-01-10T04:41:16;16.45;;;7.20;;
81960;SDS011;71462;50.650;6.888;2024-01-10T04:43:45;23.25;;;9.23;;
81960;SDS011;71462;50.650;6.888;2024-01-10T04:46:13;16.70;;;8.48;;
81960;SDS011;71462;50.650;6.888;2024-01-10T04:48:41;24.30;;;9.82;;
81960;SDS011;71462;50.650;6.888;2024-01-10T04:51:08;15.52;;;7.38;;
81960;SDS011;71462;50.650;6.888;2024-01-10T04:53:36;19.10;;;6.93;;
81960;SDS011;71462;50.650;6.888;2024-01-10T04:56:04;11.75;;;5.65;;
81960;SDS011;71462;50.650;6.888;2024-01-10T04:58:32;13.23;;;5.05;;
81960;SDS011;71462;50.650;6.888;2024-01-10T05:01:02;11.20;;;4.85;;
81960;SDS011;71462;50.650;6.888;2024-01-10T05:03:29;12.32;;;5.10;;
81960;SDS011;71462;50.650;6.888;2024-01-10T05:05:57;9.93;;;4.88;;
81960;SDS011;71462;50.650;6.888;2024-01-10T05:08:25;14.90;;;5.57;;
81960;SDS011;71462;50.650;6.888;2024-01-10T05:10:53;14.07;;;5.72;;
81960;SDS011;71462;50.650;6.888;2024-01-10T05:13:21;14.35;;;6.15;;
81960;SDS011;71462;50.650;6.888;2024-01-10T05:15:49;15.15;;;6.22;;
81960;SDS011;71462;50.650;6.888;2024-01-10T05:18:32;16.63;;;6.95;;
81960;SDS011;71462;50.650;6.888;2024-01-10T05:21:06;19.60;;;8.10;;
81960;SDS011;71462;50.650;6.888;2024-01-10T05:23:36;23.13;;;10.10;;
81960;SDS011;71462;50.650;6.888;2024-01-10T05:26:08;22.15;;;9.85;;
81960;SDS011;71462;50.650;6.888;2024-01-10T05:28:42;18.67;;;7.47;;
81960;SDS011;71462;50.650;6.888;2024-01-10T05:31:20;22.88;;;8.70;;
81960;SDS011;71462;50.650;6.888;2024-01-10T05:33:52;12.50;;;5.97;;
81960;SDS011;71462;50.650;6.888;2024-01-10T05:36:22;16.58;;;7.40;;
81960;SDS011;71462;50.650;6.888;2024-01-10T05:39:03;11.43;;;5.53;;
81960;SDS011;71462;50.650;6.888;2024-01-10T05:41:31;11.05;;;4.97;;
81960;SDS011;71462;50.650;6.888;2024-01-10T05:44:08;13.38;;;5.50;;
81960;SDS011;71462;50.650;6.888;2024-01-10T05:46:37;10.45;;;4.95;;
81960;SDS011;71462;50.650;6.888;2024-01-10T05:49:07;10.80;;;5.10;;
81960;SDS011;71462;50.650;6.888;2024-01-10T05:51:37;12.93;;;5.63;;
81960;SDS011;71462;50.650;6.888;2024-01-10T05:54:09;13.10;;;5.20;;
81960;SDS011;71462;50.650;6.888;2024-01-10T05:56:37;16.23;;;5.80;;
81960;SDS011;71462;50.650;6.888;2024-01-10T05:59:07;15.25;;;5.45;;
81960;SDS011;71462;50.650;6.888;2024-01-10T06:01:37;12.23;;;5.95;;
81960;SDS011;71462;50.650;6.888;2024-01-10T06:04:08;17.52;;;5.93;;
81960;SDS011;71462;50.650;6.888;2024-01-10T06:06:37;14.88;;;4.75;;
81960;SDS011;71462;50.650;6.888;2024-01-10T06:09:07;15.25;;;5.78;;
81960;SDS011;71462;50.650;6.888;2024-01-10T06:11:40;12.93;;;5.72;;
81960;SDS011;71462;50.650;6.888;2024-01-10T06:14:15;14.60;;;5.70;;
81960;SDS011;71462;50.650;6.888;2024-01-10T06:16:43;10.52;;;4.70;;
81960;SDS011;71462;50.650;6.888;2024-01-10T06:19:16;13.75;;;5.55;;
81960;SDS011;71462;50.650;6.888;2024-01-10T06:21:45;12.25;;;5.30;;
81960;SDS011;71462;50.650;6.888;2024-01-10T06:24:13;12.57;;;5.25;;
81960;SDS011;71462;50.650;6.888;2024-01-10T06:26:40;15.68;;;6.50;;
81960;SDS011;71462;50.650;6.888;2024-01-10T06:29:08;12.77;;;5.57;;
81960;SDS011;71462;50.650;6.888;2024-01-10T06:31:36;11.50;;;4.80;;
81960;SDS011;71462;50.650;6.888;2024-01-10T06:34:04;12.05;;;5.18;;
81960;SDS011;71462;50.650;6.888;2024-01-10T06:36:33;13.18;;;5.10;;
81960;SDS011;71462;50.650;6.888;2024-01-10T06:39:01;12.52;;;5.68;;
81960;SDS011;71462;50.650;6.888;2024-01-10T06:41:30;13.25;;;5.55;;
81960;SDS011;71462;50.650;6.888;2024-01-10T06:43:58;14.63;;;5.80;;
81960;SDS011;71462;50.650;6.888;2024-01-10T06:46:29;12.63;;;5.75;;
81960;SDS011;71462;50.650;6.888;2024-01-10T06:48:58;10.70;;;4.53;;
81960;SDS011;71462;50.650;6.888;2024-01-10T06:51:26;12.00;;;5.55;;
81960;SDS011;71462;50.650;6.888;2024-01-10T06:53:55;14.60;;;6.70;;
81960;SDS011;71462;50.650;6.888;2024-01-10T06:56:29;12.25;;;5.32;;
81960;SDS011;71462;50.650;6.888;2024-01-10T06:58:56;13.50;;;5.78;;
81960;SDS011;71462;50.650;6.888;2024-01-10T07:01:24;13.63;;;5.82;;
81960;SDS011;71462;50.650;6.888;2024-01-10T07:03:52;12.68;;;6.10;;
81960;SDS011;71462;50.650;6.888;2024-01-10T07:06:21;14.38;;;5.65;;
81960;SDS011;71462;50.650;6.888;2024-01-10T07:08:50;14.48;;;5.88;;
81960;SDS011;71462;50.650;6.888;2024-01-10T07:11:19;13.73;;;6.82;;
81960;SDS011;71462;50.650;6.888;2024-01-10T07:13:47;16.02;;;6.85;;
81960;SDS011;71462;50.650;6.888;2024-01-10T07:16:15;16.52;;;6.43;;
81960;SDS011;71462;50.650;6.888;2024-01-10T07:18:42;14.20;;;5.80;;
81960;SDS011;71462;50.650;6.888;2024-01-10T07:21:11;16.15;;;6.32;;
81960;SDS011;71462;50.650;6.888;2024-01-10T07:23:39;12.77;;;6.22;;
81960;SDS011;71462;50.650;6.888;2024-01-10T07:26:09;13.38;;;6.45;;
81960;SDS011;71462;50.650;6.888;2024-01-10T07:28:38;13.57;;;5.80;;
81960;SDS011;71462;50.650;6.888;2024-01-10T07:31:05;20.38;;;6.75;;
81960;SDS011;71462;50.650;6.888;2024-01-10T07:33:33;10.50;;;5.18;;
81960;SDS011;71462;50.650;6.888;2024-01-10T07:36:22;17.02;;;6.28;;
81960;SDS011;71462;50.650;6.888;2024-01-10T07:39:53;16.23;;;7.07;;
81960;SDS011;71462;50.650;6.888;2024-01-10T07:42:45;15.07;;;6.60;;
81960;SDS011;71462;50.650;6.888;2024-01-10T07:45:35;16.90;;;7.03;;
81960;SDS011;71462;50.650;6.888;2024-01-10T07:48:13;15.60;;;6.30;;
81960;SDS011;71462;50.650;6.888;2024-01-10T07:50:48;16.23;;;7.32;;
81960;SDS011;71462;50.650;6.888;2024-01-10T07:53:20;17.88;;;6.15;;
81960;SDS011;71462;50.650;6.888;2024-01-10T07:55:48;13.85;;;7.18;;
81960;SDS011;71462;50.650;6.888;2024-01-10T07:58:17;15.55;;;7.30;;
81960;SDS011;71462;50.650;6.888;2024-01-10T08:00:46;17.58;;;7.70;;
81960;SDS011;71462;50.650;6.888;2024-01-10T08:03:14;17.13;;;7.65;;
81960;SDS011;71462;50.650;6.888;2024-01-10T08:05:46;19.75;;;8.23;;
81960;SDS011;71462;50.650;6.888;2024-01-10T08:08:17;17.75;;;7.43;;
81960;SDS011;71462;50.650;6.888;2024-01-10T08:10:45;20.63;;;8.05;;
81960;SDS011;71462;50.650;6.888;2024-01-10T08:13:20;17.23;;;7.32;;
81960;SDS011;71462;50.650;6.888;2024-01-10T08:15:53;19.25;;;7.38;;
81960;SDS011;71462;50.650;6.888;2024-01-10T08:18:22;15.27;;;6.72;;
81960;SDS011;71462;50.650;6.888;2024-01-10T08:20:54;15.88;;;7.00;;
81960;SDS011;71462;50.650;6.888;2024-01-10T08:23:29;17.25;;;7.35;;
81960;SDS011;71462;50.650;6.888;2024-01-10T08:25:59;16.27;;;7.50;;
81960;SDS011;71462;50.650;6.888;2024-01-10T08:28:33;25.48;;;8.98;;
81960;SDS011;71462;50.650;6.888;2024-01-10T08:31:04;22.30;;;9.65;;
81960;SDS011;71462;50.650;6.888;2024-01-10T08:33:38;20.77;;;9.00;;
81960;SDS011;71462;50.650;6.888;2024-01-10T08:36:17;20.95;;;9.25;;
81960;SDS011;71462;50.650;6.888;2024-01-10T08:38:48;24.05;;;9.68;;
81960;SDS011;71462;50.650;6.888;2024-01-10T08:41:19;15.13;;;7.55;;
81960;SDS011;71462;50.650;6.888;2024-01-10T08:43:51;16.85;;;8.07;;
81960;SDS011;71462;50.650;6.888;2024-01-10T08:46:22;19.13;;;7.80;;
81960;SDS011;71462;50.650;6.888;2024-01-10T08:48:53;20.98;;;8.25;;
81960;SDS011;71462;50.650;6.888;2024-01-10T08:51:26;21.98;;;9.35;;
81960;SDS011;71462;50.650;6.888;2024-01-10T08:53:54;18.27;;;8.50;;
81960;SDS011;71462;50.650;6.888;2024-01-10T08:56:22;16.77;;;7.65;;
81960;SDS011;71462;50.650;6.888;2024-01-10T08:58:51;13.57;;;6.88;;
81960;SDS011;71462;50.650;6.888;2024-01-10T09:01:19;17.45;;;7.18;;
81960;SDS011;71462;50.650;6.888;2024-01-10T09:03:48;17.95;;;8.32;;
81960;SDS011;71462;50.650;6.888;2024-01-10T09:06:16;17.08;;;6.75;;
81960;SDS011;71462;50.650;6.888;2024-01-10T09:08:44;10.23;;;5.32;;
81960;SDS011;71462;50.650;6.888;2024-01-10T09:11:11;14.18;;;5.53;;
81960;SDS011;71462;50.650;6.888;2024-01-10T09:13:39;17.58;;;7.13;;
81960;SDS011;71462;50.650;6.888;2024-01-10T09:16:07;15.85;;;7.38;;
81960;SDS011;71462;50.650;6.888;2024-01-10T09:18:35;25.27;;;8.48;;
81960;SDS011;71462;50.650;6.888;2024-01-10T09:21:06;14.70;;;6.90;;
81960;SDS011;71462;50.650;6.888;2024-01-10T09:23:34;18.50;;;7.50;;
81960;SDS011;71462;50.650;6.888;2024-01-10T09:26:01;19.77;;;7.25;;
81960;SDS011;71462;50.650;6.888;2024-01-10T09:28:29;12.20;;;4.88;;
81960;SDS011;71462;50.650;6.888;2024-01-10T09:30:57;14.23;;;6.15;;
81960;SDS011;71462;50.650;6.888;2024-01-10T09:33:25;14.02;;;5.18;;
81960;SDS011;71462;50.650;6.888;2024-01-10T09:35:52;18.45;;;7.35;;
81960;SDS011;71462;50.650;6.888;2024-01-10T09:38:23;21.85;;;9.02;;
81960;SDS011;71462;50.650;6.888;2024-01-10T09:40:51;17.55;;;9.15;;
81960;SDS011;71462;50.650;6.888;2024-01-10T09:43:20;22.55;;;9.98;;
81960;SDS011;71462;50.650;6.888;2024-01-10T09:45:48;19.77;;;8.07;;
81960;SDS011;71462;50.650;6.888;2024-01-10T09:48:17;19.73;;;8.98;;
81960;SDS011;71462;50.650;6.888;2024-01-10T09:50:46;34.88;;;11.50;;
81960;SDS011;71462;50.650;6.888;2024-01-10T09:53:20;21.35;;;8.73;;
81960;SDS011;71462;50.650;6.888;2024-01-10T09:55:51;20.23;;;8.82;;
81960;SDS011;71462;50.650;6.888;2024-01-10T09:58:18;26.73;;;11.93;;
81960;SDS011;71462;50.650;6.888;2024-01-10T10:00:46;19.88;;;7.88;;
81960;SDS011;71462;50.650;6.888;2024-01-10T10:03:14;21.58;;;9.35;;
81960;SDS011;71462;50.650;6.888;2024-01-10T10:05:45;19.33;;;8.02;;
81960;SDS011;71462;50.650;6.888;2024-01-10T10:08:13;22.83;;;9.00;;
81960;SDS011;71462;50.650;6.888;2024-01-10T10:10:49;22.10;;;8.95;;
81960;SDS011;71462;50.650;6.888;2024-01-10T10:13:27;17.00;;;7.57;;
81960;SDS011;71462;50.650;6.888;2024-01-10T10:15:58;25.58;;;11.43;;
81960;SDS011;71462;50.650;6.888;2024-01-10T10:18:27;13.68;;;6.65;;
81960;SDS011;71462;50.650;6.888;2024-01-10T10:21:07;13.95;;;5.97;;
81960;SDS011;71462;50.650;6.888;2024-01-10T10:23:37;16.80;;;7.57;;
81960;SDS011;71462;50.650;6.888;2024-01-10T10:26:11;23.77;;;11.57;;
81960;SDS011;71462;50.650;6.888;2024-01-10T10:28:47;21.50;;;7.70;;
81960;SDS011;71462;50.650;6.888;2024-01-10T10:31:16;18.02;;;7.95;;
81960;SDS011;71462;50.650;6.888;2024-01-10T10:33:45;9.68;;;4.28;;
81960;SDS011;71462;50.650;6.888;2024-01-10T10:36:15;23.05;;;9.73;;
81960;SDS011;71462;50.650;6.888;2024-01-10T10:38:43;17.77;;;7.60;;
81960;SDS011;71462;50.650;6.888;2024-01-10T10:41:12;24.75;;;8.93;;
81960;SDS011;71462;50.650;6.888;2024-01-10T10:43:41;22.88;;;9.60;;
81960;SDS011;71462;50.650;6.888;2024-01-10T10:46:10;19.42;;;8.02;;
81960;SDS011;71462;50.650;6.888;2024-01-10T10:48:39;22.10;;;8.48;;
81960;SDS011;71462;50.650;6.888;2024-01-10T10:51:08;12.10;;;5.80;;
81960;SDS011;71462;50.650;6.888;2024-01-10T10:53:37;24.23;;;9.70;;
81960;SDS011;71462;50.650;6.888;2024-01-10T10:56:06;21.05;;;9.07;;
81960;SDS011;71462;50.650;6.888;2024-01-10T10:58:37;23.00;;;10.23;;
81960;SDS011;71462;50.650;6.888;2024-01-10T11:01:07;19.25;;;8.80;;
81960;SDS011;71462;50.650;6.888;2024-01-10T11:03:36;28.40;;;11.20;;
81960;SDS011;71462;50.650;6.888;2024-01-10T11:06:06;11.65;;;6.05;;
81960;SDS011;71462;50.650;6.888;2024-01-10T11:08:36;19.88;;;8.73;;
81960;SDS011;71462;50.650;6.888;2024-01-10T11:11:07;13.75;;;6.18;;
81960;SDS011;71462;50.650;6.888;2024-01-10T11:13:52;24.45;;;8.77;;
81960;SDS011;71462;50.650;6.888;2024-01-10T11:16:37;18.50;;;9.70;;
81960;SDS011;71462;50.650;6.888;2024-01-10T11:19:32;26.15;;;9.05;;
81960;SDS011;71462;50.650;6.888;2024-01-10T11:22:26;18.48;;;8.25;;
81960;SDS011;71462;50.650;6.888;2024-01-10T11:25:08;18.92;;;8.27;;
81960;SDS011;71462;50.650;6.888;2024-01-10T11:27:36;26.10;;;10.48;;
81960;SDS011;71462;50.650;6.888;2024-01-10T11:30:07;15.75;;;6.82;;
81960;SDS011;71462;50.650;6.888;2024-01-10T11:32:36;20.33;;;8.77;;
81960;SDS011;71462;50.650;6.888;2024-01-10T11:35:05;22.17;;;9.45;;
81960;SDS011;71462;50.650;6.888;2024-01-10T11:37:42;24.42;;;10.02;;
81960;SDS011;71462;50.650;6.888;2024-01-10T11:40:11;14.13;;;7.15;;
81960;SDS011;71462;50.650;6.888;2024-01-10T11:42:43;20.42;;;8.13;;
81960;SDS011;71462;50.650;6.888;2024-01-10T11:45:17;26.20;;;11.52;;
81960;SDS011;71462;50.650;6.888;2024-01-10T11:48:04;24.90;;;10.13;;
81960;SDS011;71462;50.650;6.888;2024-01-10T11:50:37;18.20;;;7.10;;
81960;SDS011;71462;50.650;6.888;2024-01-10T11:53:04;22.58;;;10.32;;
81960;SDS011;71462;50.650;6.888;2024-01-10T11:55:49;22.23;;;9.10;;
81960;SDS011;71462;50.650;6.888;2024-01-10T12:00:47;18.48;;;8.60;;
81960;SDS011;71462;50.650;6.888;2024-01-10T12:03:16;22.10;;;9.70;;
81960;SDS011;71462;50.650;6.888;2024-01-10T12:05:46;28.88;;;10.30;;
81960;SDS011;71462;50.650;6.888;2024-01-10T12:08:14;30.42;;;14.45;;
81960;SDS011;71462;50.650;6.888;2024-01-10T12:10:42;28.25;;;10.63;;
81960;SDS011;71462;50.650;6.888;2024-01-10T12:13:10;14.75;;;7.28;;
81960;SDS011;71462;50.650;6.888;2024-01-10T12:15:38;23.20;;;11.35;;
81960;SDS011;71462;50.650;6.888;2024-01-10T12:18:07;33.00;;;11.85;;
81960;SDS011;71462;50.650;6.888;2024-01-10T12:20:35;21.95;;;10.27;;
81960;SDS011;71462;50.650;6.888;2024-01-10T12:23:03;17.58;;;6.55;;
81960;SDS011;71462;50.650;6.888;2024-01-10T12:25:31;24.58;;;10.98;;
81960;SDS011;71462;50.650;6.888;2024-01-10T12:28:01;27.17;;;10.02;;
81960;SDS011;71462;50.650;6.888;2024-01-10T12:30:28;18.40;;;8.27;;
81960;SDS011;71462;50.650;6.888;2024-01-10T12:32:58;25.77;;;11.63;;
81960;SDS011;71462;50.650;6.888;2024-01-10T12:35:29;24.15;;;8.73;;
81960;SDS011;71462;50.650;6.888;2024-01-10T12:37:57;19.48;;;7.88;;
81960;SDS011;71462;50.650;6.888;2024-01-10T12:40:25;23.17;;;10.68;;
81960;SDS011;71462;50.650;6.888;2024-01-10T12:43:01;26.80;;;11.23;;
81960;SDS011;71462;50.650;6.888;2024-01-10T12:45:29;20.00;;;7.93;;
81960;SDS011;71462;50.650;6.888;2024-01-10T12:47:57;26.48;;;12.43;;
81960;SDS011;71462;50.650;6.888;2024-01-10T12:50:25;25.92;;;10.02;;
81960;SDS011;71462;50.650;6.888;2024-01-10T12:52:55;25.73;;;10.88;;
81960;SDS011;71462;50.650;6.888;2024-01-10T12:55:25;16.30;;;6.82;;
81960;SDS011;71462;50.650;6.888;2024-01-10T12:57:54;22.75;;;9.75;;
81960;SDS011;71462;50.650;6.888;2024-01-10T13:00:25;16.77;;;8.30;;
81960;SDS011;71462;50.650;6.888;2024-01-10T13:02:53;22.00;;;9.98;;
81960;SDS011;71462;50.650;6.888;2024-01-10T13:05:24;27.90;;;10.73;;
81960;SDS011;71462;50.650;6.888;2024-01-10T13:07:56;27.70;;;13.55;;
81960;SDS011;71462;50.650;6.888;2024-01-10T13:10:23;26.08;;;13.40;;
81960;SDS011;71462;50.650;6.888;2024-01-10T13:12:51;22.77;;;10.38;;
81960;SDS011;71462;50.650;6.888;2024-01-10T13:15:20;27.65;;;12.55;;
81960;SDS011;71462;50.650;6.888;2024-01-10T13:17:48;27.98;;;12.18;;
81960;SDS011;71462;50.650;6.888;2024-01-10T13:20:15;19.70;;;8.85;;
81960;SDS011;71462;50.650;6.888;2024-01-10T13:22:43;27.08;;;11.63;;
81960;SDS011;71462;50.650;6.888;2024-01-10T13:25:13;21.23;;;8.15;;
81960;SDS011;71462;50.650;6.888;2024-01-10T13:27:42;24.08;;;11.45;;
81960;SDS011;71462;50.650;6.888;2024-01-10T13:30:10;24.95;;;10.90;;
81960;SDS011;71462;50.650;6.888;2024-01-10T13:32:40;25.85;;;11.13;;
81960;SDS011;71462;50.650;6.888;2024-01-10T13:35:08;16.77;;;7.28;;
81960;SDS011;71462;50.650;6.888;2024-01-10T13:37:36;25.88;;;10.68;;
81960;SDS011;71462;50.650;6.888;2024-01-10T13:40:05;23.90;;;11.55;;
81960;SDS011;71462;50.650;6.888;2024-01-10T13:42:35;17.08;;;8.57;;
81960;SDS011;71462;50.650;6.888;2024-01-10T13:45:04;23.70;;;11.95;;
81960;SDS011;71462;50.650;6.888;2024-01-10T13:47:32;29.40;;;11.02;;
81960;SDS011;71462;50.650;6.888;2024-01-10T13:50:01;25.95;;;11.70;;
81960;SDS011;71462;50.650;6.888;2024-01-10T13:52:29;21.20;;;8.98;;
81960;SDS011;71462;50.650;6.888;2024-01-10T13:54:57;22.77;;;9.48;;
81960;SDS011;71462;50.650;6.888;2024-01-10T13:57:26;22.55;;;9.98;;
81960;SDS011;71462;50.650;6.888;2024-01-10T13:59:57;18.60;;;8.82;;
81960;SDS011;71462;50.650;6.888;2024-01-10T14:02:25;24.88;;;11.65;;
81960;SDS011;71462;50.650;6.888;2024-01-10T14:04:53;25.20;;;11.77;;
81960;SDS011;71462;50.650;6.888;2024-01-10T14:07:23;21.50;;;10.15;;
81960;SDS011;71462;50.650;6.888;2024-01-10T14:09:51;26.05;;;12.75;;
81960;SDS011;71462;50.650;6.888;2024-01-10T14:12:20;23.67;;;10.77;;
81960;SDS011;71462;50.650;6.888;2024-01-10T14:14:48;23.38;;;9.65;;
81960;SDS011;71462;50.650;6.888;2024-01-10T14:17:18;23.83;;;9.50;;
81960;SDS011;71462;50.650;6.888;2024-01-10T14:19:46;22.77;;;10.32;;
81960;SDS011;71462;50.650;6.888;2024-01-10T14:22:13;18.02;;;7.90;;
81960;SDS011;71462;50.650;6.888;2024-01-10T14:24:55;26.38;;;10.02;;
81960;SDS011;71462;50.650;6.888;2024-01-10T14:27:25;21.67;;;9.20;;
81960;SDS011;71462;50.650;6.888;2024-01-10T14:29:53;18.00;;;7.60;;
81960;SDS011;71462;50.650;6.888;2024-01-10T14:32:21;26.77;;;10.13;;
81960;SDS011;71462;50.650;6.888;2024-01-10T14:34:49;20.25;;;8.32;;
81960;SDS011;71462;50.650;6.888;2024-01-10T14:37:17;22.10;;;8.73;;
81960;SDS011;71462;50.650;6.888;2024-01-10T14:39:47;19.90;;;10.30;;
81960;SDS011;71462;50.650;6.888;2024-01-10T14:42:15;14.50;;;7.85;;
81960;SDS011;71462;50.650;6.888;2024-01-10T14:44:43;17.27;;;8.27;;
81960;SDS011;71462;50.650;6.888;2024-01-10T14:47:14;17.80;;;8.30;;
81960;SDS011;71462;50.650;6.888;2024-01-10T14:49:43;16.38;;;6.00;;
81960;SDS011;71462;50.650;6.888;2024-01-10T14:52:11;14.98;;;7.47;;
81960;SDS011;71462;50.650;6.888;2024-01-10T14:54:38;17.02;;;8.00;;